Mapleton, UT (84664)

3:30 PM MDT on October 23, 2014 (GMT -0600)
East Mapleton Bench | Change Station
CLOSE
Current Station
Personal Weather Station
Location: Mapleton, UT
Elevation: 4892 ft
Nearby Weather Stations

Elev 4892 ft 40.13 °N, 111.56 °W | Updated 46 seconds ago

Clear
Clear
74.7 °F
Feels Like 77 °F
N
0.0
Wind Variable Wind from WNW
Gusts 3.0 mph

Today
High -- | Low -- °F
--% Chance of Precip.
Yesterday
High -- | Low -- °F
Precip. -- in
7:45 AM 6:35 PM
Waning Crescent, 0% visible
Pressure 30.09 in
Visibility 10.0 miles
Clouds Scattered Clouds 10000 ft
Heat Index 77 °F
Dew Point 38 °F
Humidity 26%
Rainfall 0.00 in
Snow Depth 2 in
UV 2.2 out of 12
Pollen 1.80 out of 12
Air Quality Not available.
Flu Activity Sporadic
METAR KPVU 232057Z 00000KT 10SM SCT100 22/01 A3009

More Conditions Fewer Conditions

Pressure 30.09 in
Visibility 10.0 miles
Clouds Scattered Clouds 10000 ft
Heat Index 77 °F
Dew Point 38 °F
Humidity 26%
Rainfall 0.00 in
Snow Depth 2 in
UV 2.2 out of 12
Pollen 1.80 out of 12
Air Quality Not available.
Flu Activity Sporadic
METAR KPVU 232057Z 00000KT 10SM SCT100 22/01 A3009

More Conditions Fewer Conditions

10-Day Weather Forecast

Almanac

Astronomy

Oct. 23, 2014 Rise Set
Actual Time 7:45 AM MDT 6:35 PM MDT
Civil Twilight 7:17 AM MDT 7:02 PM MDT
Nautical Twilight 6:46 AM MDT 7:34 PM MDT
Astronomical Twilight 6:14 AM MDT 8:05 PM MDT
Moon 7:28 AM MDT 6:38 PM MDT
Length of Visible Light 11h 44m
Length of Day
10h 49m
Tomorrow will be 2m 27s shorter.
Waning Crescent, 0% of the Moon is Illuminated
Today
Waning Crescent
Oct 23
New
Oct 30
First Quarter
Nov 6
Full
Nov 14
Last Quarter

Today's Extremes

State Highs State Lows

Community

WunderPhotos

Upload Photos

1,764,379 photos uploaded!

WunderBlogs® & News

Nearby

Snow Depth

Station Depth Elevation
Cascade Mountain 2 in 7768 ft
Brighton 0 in 8750 ft
Louis Meadow 0 in 6700 ft
Trial Lake 1 in 9960 ft
Smith & Morehouse 0 in 7600 ft

Earthquake Activity

City Distance Mag. Time & Date
Ferron, Utah 80 miles 2.5 10:53 PM MDT
2014-10-21
Minimum magnitude displayed is 2.5.

Coastal Water Temperatures

Place Temperature
No Stations Reporting

Nearby Weather Stations